Time;durP1;ratioP1;P1;durP2;ratioP2;P2;SDS_P1;SDS_P2;PMS_P1;PMS_P2;Temp;Humidity;BMP_temperature;BMP_pressure;BME280_temperature;BME280_humidity;BME280_pressure;Samples;Min_cycle;Max_cycle;Signal;HPM_P1;HPM_P2
2021/12/27 00:01:25;;;;;;;37.87;34.40;;;4.20;99.90;;;;;;5049733;28;20467;-69
2021/12/27 00:03:56;;;;;;;40.90;36.67;;;4.20;99.90;;;;;;5049952;28;20460;-70
2021/12/27 00:06:23;;;;;;;40.93;36.63;;;4.20;99.90;;;;;;5055634;28;20463;-70
2021/12/27 00:08:51;;;;;;;40.43;36.13;;;4.20;99.90;;;;;;5051689;28;20454;-70
2021/12/27 00:11:18;;;;;;;43.27;38.97;;;4.20;99.90;;;;;;5050992;28;20559;-69
2021/12/27 00:13:45;;;;;;;42.53;38.53;;;4.20;99.90;;;;;;5051144;28;20467;-69
2021/12/27 00:16:12;;;;;;;40.93;37.13;;;4.20;99.90;;;;;;5050623;28;20463;-70
2021/12/27 00:18:39;;;;;;;43.80;39.40;;;4.20;99.90;;;;;;5057459;28;20455;-69
2021/12/27 00:21:08;;;;;;;44.73;40.23;;;4.10;99.90;;;;;;5053261;28;20491;-69
2021/12/27 00:23:35;;;;;;;43.50;39.03;;;4.10;99.90;;;;;;5051925;28;20483;-70
2021/12/27 00:26:02;;;;;;;43.30;38.70;;;4.10;99.90;;;;;;5053992;28;20483;-69
2021/12/27 00:28:30;;;;;;;39.83;36.03;;;4.20;99.90;;;;;;5048614;28;20542;-70
2021/12/27 00:30:58;;;;;;;41.73;37.43;;;4.20;99.90;;;;;;5051112;28;20464;-69
2021/12/27 00:33:25;;;;;;;43.83;39.13;;;4.20;99.90;;;;;;5046626;28;20731;-69
2021/12/27 00:35:51;;;;;;;41.93;37.63;;;4.10;99.90;;;;;;5050875;28;20456;-69
2021/12/27 00:38:20;;;;;;;40.23;36.23;;;4.10;99.90;;;;;;5047137;28;20471;-69
2021/12/27 00:40:47;;;;;;;49.03;39.30;;;4.20;99.90;;;;;;5052397;28;20475;-68
2021/12/27 00:43:15;;;;;;;43.27;39.23;;;4.20;99.90;;;;;;5050882;28;20763;-70
2021/12/27 00:45:42;;;;;;;43.17;39.17;;;4.20;99.90;;;;;;5055289;28;20532;-70
2021/12/27 00:48:09;;;;;;;41.50;37.63;;;4.20;99.90;;;;;;5055408;28;20459;-70
2021/12/27 00:50:36;;;;;;;41.30;37.20;;;4.20;99.90;;;;;;5058013;28;21012;-71
2021/12/27 00:53:04;;;;;;;41.70;37.57;;;4.20;99.90;;;;;;5052113;28;20495;-70
2021/12/27 00:55:32;;;;;;;42.93;38.30;;;4.20;99.90;;;;;;5056826;28;20456;-71
2021/12/27 00:57:58;;;;;;;39.47;35.43;;;4.10;99.90;;;;;;5055448;28;20460;-70
2021/12/27 01:00:26;;;;;;;42.20;37.90;;;4.20;99.90;;;;;;5051829;28;20452;-71
2021/12/27 01:02:54;;;;;;;40.17;36.00;;;4.10;99.90;;;;;;5058249;28;20460;-70
2021/12/27 01:05:23;;;;;;;39.20;35.30;;;4.10;99.90;;;;;;5055201;28;20505;-70
2021/12/27 01:07:51;;;;;;;40.67;36.80;;;4.10;99.90;;;;;;5055068;28;20466;-71
2021/12/27 01:10:39;;;;;;;41.77;37.30;;;4.10;99.90;;;;;;5049486;28;20463;-71
2021/12/27 01:13:19;;;;;;;39.40;35.30;;;4.10;99.90;;;;;;5053947;28;20514;-71
2021/12/27 01:15:50;;;;;;;39.00;35.10;;;4.10;99.90;;;;;;5067836;28;20462;-71
2021/12/27 01:18:19;;;;;;;38.73;34.73;;;4.10;99.90;;;;;;5059393;28;20507;-71
2021/12/27 01:20:48;;;;;;;36.73;32.93;;;4.10;99.90;;;;;;5057096;28;20526;-70
2021/12/27 01:23:15;;;;;;;38.37;34.77;;;4.00;99.90;;;;;;5058497;28;20584;-71
2021/12/27 01:25:43;;;;;;;37.17;33.30;;;4.10;99.90;;;;;;5055089;28;20513;-71
2021/12/27 01:28:12;;;;;;;39.97;35.80;;;4.10;99.90;;;;;;5061258;28;20451;-71
2021/12/27 01:30:47;;;;;;;40.13;36.03;;;4.10;99.90;;;;;;5054935;28;20825;-72
2021/12/27 01:33:14;;;;;;;37.07;33.67;;;4.10;99.90;;;;;;5057473;28;20463;-71
2021/12/27 01:35:41;;;;;;;38.53;34.53;;;4.00;99.90;;;;;;5056464;28;20513;-71
2021/12/27 01:38:08;;;;;;;38.50;34.73;;;4.10;99.90;;;;;;5058897;28;20867;-71
2021/12/27 01:40:35;;;;;;;35.70;32.30;;;4.00;99.90;;;;;;5061042;28;20491;-71
2021/12/27 01:43:08;;;;;;;35.53;31.93;;;4.10;99.90;;;;;;5055524;28;20470;-71
2021/12/27 01:45:39;;;;;;;35.87;32.43;;;4.10;99.90;;;;;;5054132;28;20495;-71
2021/12/27 01:48:07;;;;;;;37.20;33.33;;;4.10;99.90;;;;;;5058639;28;20471;-71
2021/12/27 01:50:36;;;;;;;39.50;35.00;;;4.10;99.90;;;;;;5058578;28;20507;-71
2021/12/27 01:53:03;;;;;;;35.97;32.50;;;4.10;99.90;;;;;;5057135;28;20470;-71
2021/12/27 01:55:30;;;;;;;38.00;34.07;;;4.10;99.90;;;;;;5055978;28;20464;-71
2021/12/27 01:57:57;;;;;;;37.23;33.77;;;4.10;99.90;;;;;;5050948;28;20809;-71
2021/12/27 02:00:24;;;;;;;36.23;32.40;;;4.20;99.90;;;;;;5057590;28;20459;-71
2021/12/27 02:02:53;;;;;;;35.90;32.37;;;4.10;99.90;;;;;;5054514;28;20460;-71
2021/12/27 02:05:20;;;;;;;38.00;34.23;;;4.20;99.90;;;;;;5054482;28;20480;-71
2021/12/27 02:07:47;;;;;;;37.23;33.70;;;4.20;99.90;;;;;;5059941;28;20470;-71
2021/12/27 02:10:14;;;;;;;37.13;33.63;;;4.30;99.90;;;;;;5052194;28;20456;-71
2021/12/27 02:12:44;;;;;;;35.23;32.23;;;4.30;99.90;;;;;;5057290;28;20463;-71
2021/12/27 02:15:12;;;;;;;36.07;32.70;;;4.40;99.90;;;;;;5060332;28;20553;-71
2021/12/27 02:17:40;;;;;;;36.60;32.90;;;4.40;99.90;;;;;;5058013;28;21041;-71
2021/12/27 02:20:11;;;;;;;37.70;33.80;;;4.40;99.90;;;;;;5051484;28;20464;-71
2021/12/27 02:22:40;;;;;;;38.20;34.27;;;4.30;99.90;;;;;;5060913;28;20487;-71
2021/12/27 02:25:09;;;;;;;36.13;32.83;;;4.40;99.90;;;;;;5059370;28;20479;-70
2021/12/27 02:27:36;;;;;;;37.37;33.57;;;4.40;99.90;;;;;;5059571;28;20468;-71
2021/12/27 02:30:06;;;;;;;39.10;35.13;;;4.40;99.90;;;;;;5053043;28;20468;-71
2021/12/27 02:32:33;;;;;;;37.53;33.73;;;4.40;99.90;;;;;;5056982;28;20866;-71
2021/12/27 02:35:00;;;;;;;39.37;35.10;;;4.30;99.90;;;;;;5058396;28;20464;-71
2021/12/27 02:37:28;;;;;;;38.10;34.40;;;4.30;99.90;;;;;;5056394;28;20488;-71
2021/12/27 02:39:55;;;;;;;37.20;33.63;;;4.20;99.90;;;;;;5057873;28;20494;-71
2021/12/27 02:42:22;;;;;;;38.20;34.30;;;4.10;99.90;;;;;;5053195;28;20463;-71
2021/12/27 02:44:49;;;;;;;35.37;31.93;;;4.20;99.90;;;;;;5051474;28;20463;-71
2021/12/27 02:47:16;;;;;;;36.90;33.27;;;4.20;99.90;;;;;;5064666;28;20460;-71
2021/12/27 02:49:43;;;;;;;38.73;34.77;;;4.20;99.90;;;;;;5060955;28;20549;-71
2021/12/27 02:52:11;;;;;;;36.17;32.77;;;4.20;99.90;;;;;;5051270;28;20464;-71
2021/12/27 02:54:43;;;;;;;37.80;34.27;;;4.20;99.90;;;;;;5056972;28;20512;-71
2021/12/27 02:57:10;;;;;;;37.40;33.80;;;4.20;99.90;;;;;;5056982;28;20824;-70
2021/12/27 02:59:38;;;;;;;37.70;34.20;;;4.30;99.90;;;;;;5060642;28;20747;-72
2021/12/27 03:02:05;;;;;;;39.03;35.13;;;4.30;99.90;;;;;;5055892;28;20463;-71
2021/12/27 03:04:38;;;;;;;38.07;34.37;;;4.30;99.90;;;;;;5057071;28;20467;-71
2021/12/27 03:07:05;;;;;;;36.50;33.07;;;4.30;99.90;;;;;;5056467;28;20498;-71
2021/12/27 03:09:32;;;;;;;37.17;33.53;;;4.20;99.90;;;;;;5050558;28;20464;-71
2021/12/27 03:12:01;;;;;;;39.63;35.37;;;4.30;99.90;;;;;;5049111;28;20827;-71
2021/12/27 03:14:27;;;;;;;36.17;32.50;;;4.20;99.90;;;;;;5049506;28;20468;-71
2021/12/27 03:16:54;;;;;;;36.77;32.97;;;4.30;99.90;;;;;;5057179;28;20462;-70
2021/12/27 03:19:23;;;;;;;39.10;33.50;;;4.30;99.90;;;;;;5048494;28;20822;-71
2021/12/27 03:21:50;;;;;;;35.93;32.23;;;4.30;99.90;;;;;;5053941;28;20556;-71
2021/12/27 03:24:17;;;;;;;37.67;34.00;;;4.30;99.90;;;;;;5055651;28;20467;-71
2021/12/27 03:26:44;;;;;;;38.53;34.63;;;4.30;99.90;;;;;;5062033;28;21010;-70
2021/12/27 03:29:12;;;;;;;35.80;32.40;;;4.40;99.90;;;;;;5062804;28;20795;-70
2021/12/27 03:31:39;;;;;;;38.10;34.00;;;4.40;99.90;;;;;;5056146;28;20463;-70
2021/12/27 03:34:06;;;;;;;35.60;32.20;;;4.30;99.90;;;;;;5056170;28;20460;-70
2021/12/27 03:36:38;;;;;;;38.60;34.50;;;4.30;99.90;;;;;;5058768;28;20474;-70
2021/12/27 03:39:07;;;;;;;46.10;33.73;;;4.30;99.90;;;;;;5053865;28;20460;-71
2021/12/27 03:41:34;;;;;;;35.70;32.20;;;4.30;99.90;;;;;;5058029;28;20462;-70
2021/12/27 03:44:01;;;;;;;36.83;33.00;;;4.40;99.90;;;;;;5056395;28;20463;-70
2021/12/27 03:46:30;;;;;;;36.70;33.20;;;4.40;99.90;;;;;;5061326;28;20627;-70
2021/12/27 03:48:57;;;;;;;36.93;33.47;;;4.40;99.90;;;;;;5053467;28;20468;-70
2021/12/27 03:51:24;;;;;;;39.30;34.07;;;4.50;99.90;;;;;;5053294;28;20466;-71
2021/12/27 03:53:52;;;;;;;37.63;33.93;;;4.50;99.90;;;;;;5053968;28;20560;-71
2021/12/27 03:56:23;;;;;;;40.53;36.23;;;4.50;99.90;;;;;;5060117;28;20558;-71
2021/12/27 03:58:57;;;;;;;38.70;34.83;;;4.50;99.90;;;;;;5056815;28;20553;-71
2021/12/27 04:01:26;;;;;;;36.83;33.07;;;4.50;99.90;;;;;;5048880;28;20471;-70
2021/12/27 04:03:57;;;;;;;37.00;33.43;;;4.50;99.90;;;;;;5058357;28;21044;-70
2021/12/27 04:06:25;;;;;;;37.07;33.50;;;4.50;99.90;;;;;;5056905;28;20490;-71
2021/12/27 04:08:54;;;;;;;37.00;33.40;;;4.50;99.90;;;;;;5052964;28;20793;-71
2021/12/27 04:11:21;;;;;;;37.00;33.23;;;4.50;99.90;;;;;;5050479;28;20463;-70
2021/12/27 04:13:49;;;;;;;38.43;34.60;;;4.50;99.90;;;;;;5054565;28;20470;-70
2021/12/27 04:16:15;;;;;;;36.93;33.33;;;4.60;99.90;;;;;;5054659;28;20460;-70
2021/12/27 04:18:42;;;;;;;37.60;34.20;;;4.60;99.90;;;;;;5052226;28;20832;-71
2021/12/27 04:21:11;;;;;;;38.20;34.20;;;4.70;99.90;;;;;;5061073;28;20829;-70
2021/12/27 04:23:38;;;;;;;38.27;34.67;;;4.80;99.90;;;;;;5057741;28;20498;-70
2021/12/27 04:26:05;;;;;;;39.10;35.13;;;4.70;99.90;;;;;;5055431;28;20484;-70
2021/12/27 04:28:32;;;;;;;39.60;35.97;;;4.80;99.90;;;;;;5055380;28;20709;-70
2021/12/27 04:30:59;;;;;;;40.60;36.50;;;4.80;99.90;;;;;;5050992;28;20499;-70
2021/12/27 04:33:27;;;;;;;39.27;35.53;;;4.80;99.90;;;;;;5057642;28;20451;-70
2021/12/27 04:35:54;;;;;;;38.67;35.00;;;4.80;99.90;;;;;;5050009;28;20452;-70
2021/12/27 04:38:22;;;;;;;38.47;34.87;;;4.80;99.90;;;;;;5060648;28;20828;-70
2021/12/27 04:40:51;;;;;;;39.37;35.67;;;4.90;99.90;;;;;;5059920;28;20888;-70
2021/12/27 04:43:20;;;;;;;39.27;35.63;;;4.80;99.90;;;;;;5054793;28;20459;-70
2021/12/27 04:45:49;;;;;;;41.53;37.83;;;4.80;99.90;;;;;;5058081;28;20482;-70
2021/12/27 04:48:17;;;;;;;41.03;37.03;;;4.90;99.90;;;;;;5054917;28;20463;-70
2021/12/27 04:50:43;;;;;;;41.03;36.97;;;4.80;99.90;;;;;;5055095;28;20578;-70
2021/12/27 04:53:11;;;;;;;40.23;36.27;;;4.90;99.90;;;;;;5055297;28;20459;-70
2021/12/27 04:55:39;;;;;;;40.10;36.30;;;4.90;99.90;;;;;;5052672;28;20461;-70
2021/12/27 04:58:09;;;;;;;40.67;36.70;;;4.90;99.90;;;;;;5052728;28;20951;-70
2021/12/27 05:00:36;;;;;;;40.03;36.33;;;4.80;99.90;;;;;;5051551;28;20460;-71
2021/12/27 05:03:03;;;;;;;39.13;35.53;;;4.80;99.90;;;;;;5054824;28;20561;-70
2021/12/27 05:05:31;;;;;;;42.13;37.90;;;4.90;99.90;;;;;;5050245;28;21155;-70
2021/12/27 05:07:59;;;;;;;39.20;35.70;;;4.90;99.90;;;;;;5053992;28;20464;-70
2021/12/27 05:10:26;;;;;;;39.43;35.70;;;4.90;99.90;;;;;;5049064;28;20997;-70
2021/12/27 05:12:55;;;;;;;41.30;36.93;;;4.90;99.90;;;;;;5059641;28;20471;-70
2021/12/27 05:15:22;;;;;;;39.03;35.10;;;4.90;99.90;;;;;;5054346;28;20460;-70
2021/12/27 05:17:49;;;;;;;40.23;36.27;;;4.90;99.90;;;;;;5050863;28;20464;-70
2021/12/27 05:20:17;;;;;;;38.83;35.33;;;4.90;99.90;;;;;;5051544;28;20491;-70
2021/12/27 05:22:44;;;;;;;40.70;37.03;;;4.80;99.90;;;;;;5055864;28;20479;-69
2021/12/27 05:25:14;;;;;;;38.50;35.20;;;4.90;99.90;;;;;;5051523;28;20466;-70
2021/12/27 05:27:41;;;;;;;38.33;34.87;;;5.00;99.90;;;;;;5055146;28;20495;-70
2021/12/27 05:30:12;;;;;;;37.90;34.00;;;4.90;99.90;;;;;;5049392;28;20467;-70
2021/12/27 05:32:40;;;;;;;37.83;34.40;;;5.00;99.90;;;;;;5049687;28;20466;-70
2021/12/27 05:35:08;;;;;;;37.17;33.87;;;4.90;99.90;;;;;;5051697;28;20472;-70
2021/12/27 05:37:35;;;;;;;38.43;34.90;;;4.90;99.90;;;;;;5057390;28;20470;-70
2021/12/27 05:40:05;;;;;;;37.37;34.03;;;4.90;99.90;;;;;;5052312;28;20460;-70
2021/12/27 05:42:32;;;;;;;38.07;34.30;;;4.90;99.90;;;;;;5054609;28;20568;-70
2021/12/27 05:44:59;;;;;;;37.10;33.50;;;4.90;99.90;;;;;;5057707;28;20550;-70
2021/12/27 05:47:28;;;;;;;37.40;33.77;;;4.80;99.90;;;;;;5059836;28;20494;-70
2021/12/27 05:49:55;;;;;;;38.10;34.00;;;4.80;99.90;;;;;;5050420;28;20487;-70
2021/12/27 05:52:22;;;;;;;37.10;33.33;;;4.80;99.90;;;;;;5051234;28;20458;-71
2021/12/27 05:54:49;;;;;;;37.27;33.73;;;4.80;99.90;;;;;;5053330;28;20460;-70
2021/12/27 05:57:16;;;;;;;38.37;34.77;;;4.80;99.90;;;;;;5059704;28;20462;-70
2021/12/27 05:59:43;;;;;;;35.77;32.57;;;4.90;99.90;;;;;;5053900;28;20472;-70
2021/12/27 06:02:10;;;;;;;36.00;32.60;;;4.90;99.90;;;;;;5059682;28;20567;-70
2021/12/27 06:04:38;;;;;;;35.40;32.10;;;4.90;99.90;;;;;;5064472;28;20470;-70
2021/12/27 06:07:05;;;;;;;36.70;33.33;;;4.90;99.90;;;;;;5054978;28;20491;-70
2021/12/27 06:09:32;;;;;;;35.30;31.80;;;4.90;99.90;;;;;;5060403;28;20554;-70
2021/12/27 06:11:59;;;;;;;36.90;33.37;;;4.80;99.90;;;;;;5060929;28;20522;-70
2021/12/27 06:14:26;;;;;;;35.67;32.50;;;4.80;99.90;;;;;;5060418;28;20468;-70
2021/12/27 06:16:53;;;;;;;36.70;33.40;;;4.90;99.90;;;;;;5066087;28;20530;-70
2021/12/27 06:19:21;;;;;;;35.60;32.30;;;4.90;99.90;;;;;;5053357;28;20807;-70
2021/12/27 06:21:49;;;;;;;36.60;32.90;;;4.90;99.90;;;;;;5057490;28;20976;-70
2021/12/27 06:24:17;;;;;;;37.07;33.17;;;4.90;99.90;;;;;;5054149;28;20826;-70
2021/12/27 06:26:44;;;;;;;36.80;33.10;;;5.00;99.90;;;;;;5057821;28;20493;-70
2021/12/27 06:29:11;;;;;;;36.70;33.30;;;5.00;99.90;;;;;;5055604;28;20458;-70
2021/12/27 06:31:38;;;;;;;37.40;34.00;;;5.00;99.90;;;;;;5057213;28;20484;-70
2021/12/27 06:34:06;;;;;;;36.90;33.30;;;5.20;99.90;;;;;;5055649;28;20993;-70
2021/12/27 06:36:33;;;;;;;36.17;32.97;;;5.10;99.90;;;;;;5058403;28;20471;-70
2021/12/27 06:39:03;;;;;;;37.27;33.63;;;5.20;99.90;;;;;;5054087;28;20468;-70
2021/12/27 06:41:30;;;;;;;36.63;33.43;;;5.20;99.90;;;;;;5052321;28;20495;-70
2021/12/27 06:43:57;;;;;;;37.10;33.40;;;5.10;99.90;;;;;;5055282;28;20460;-70
2021/12/27 06:46:24;;;;;;;37.33;33.93;;;5.20;99.90;;;;;;5060037;28;20490;-69
2021/12/27 06:48:51;;;;;;;36.07;32.50;;;5.20;99.90;;;;;;5056911;28;20545;-70
2021/12/27 06:51:17;;;;;;;38.20;34.63;;;5.20;99.90;;;;;;5058309;28;20569;-70
2021/12/27 06:53:45;;;;;;;36.40;32.73;;;5.10;99.90;;;;;;5056613;28;20500;-69
2021/12/27 06:56:13;;;;;;;35.83;32.50;;;5.20;99.90;;;;;;5050862;28;20978;-70
2021/12/27 06:58:40;;;;;;;41.20;32.27;;;5.20;99.90;;;;;;5059420;28;20462;-70
2021/12/27 07:01:08;;;;;;;36.40;33.00;;;5.20;99.90;;;;;;5059512;28;20467;-70
2021/12/27 07:03:35;;;;;;;36.87;33.20;;;5.20;99.90;;;;;;5057405;28;20958;-70
2021/12/27 07:06:02;;;;;;;37.57;33.80;;;5.20;99.90;;;;;;5053333;28;20468;-70
2021/12/27 07:08:29;;;;;;;36.33;32.83;;;5.20;99.90;;;;;;5054093;28;20463;-70
2021/12/27 07:10:56;;;;;;;35.57;32.47;;;5.30;99.90;;;;;;5051593;28;20456;-70
2021/12/27 07:13:25;;;;;;;37.20;33.53;;;5.10;99.90;;;;;;5056257;28;20468;-71
2021/12/27 07:15:52;;;;;;;35.23;31.80;;;5.10;99.90;;;;;;5061008;28;20451;-70
2021/12/27 07:18:23;;;;;;;35.20;31.43;;;5.10;99.90;;;;;;5058512;28;21517;-70
2021/12/27 07:20:50;;;;;;;34.27;31.17;;;5.10;99.90;;;;;;5056823;28;20459;-70
2021/12/27 07:23:18;;;;;;;35.37;31.77;;;5.00;99.90;;;;;;5059654;28;20488;-70
2021/12/27 07:25:45;;;;;;;34.27;30.93;;;5.00;99.90;;;;;;5053517;28;20469;-70
2021/12/27 07:28:12;;;;;;;37.07;33.30;;;4.90;99.90;;;;;;5061251;28;20491;-69
2021/12/27 07:30:40;;;;;;;35.00;31.90;;;4.90;99.90;;;;;;5053723;28;20460;-70
2021/12/27 07:33:07;;;;;;;36.10;32.90;;;4.90;99.90;;;;;;5053735;28;20463;-70
2021/12/27 07:35:34;;;;;;;39.10;35.47;;;4.90;99.90;;;;;;5051845;28;20464;-70
2021/12/27 07:38:01;;;;;;;39.57;35.70;;;4.90;99.90;;;;;;5053729;28;20468;-70
2021/12/27 07:40:29;;;;;;;39.67;35.37;;;4.80;99.90;;;;;;5056083;28;20467;-70
2021/12/27 07:42:56;;;;;;;37.57;33.53;;;4.70;99.90;;;;;;5053620;28;20977;-70
2021/12/27 07:45:23;;;;;;;36.97;33.33;;;4.60;99.90;;;;;;5056183;28;20474;-70
2021/12/27 07:47:51;;;;;;;37.97;33.57;;;4.50;99.90;;;;;;5057527;28;20483;-69
2021/12/27 07:50:19;;;;;;;38.00;34.40;;;4.50;99.90;;;;;;5058345;28;20823;-69
2021/12/27 07:52:46;;;;;;;37.53;33.87;;;4.40;99.90;;;;;;5050840;28;20503;-69
2021/12/27 07:55:13;;;;;;;36.73;33.40;;;4.40;99.90;;;;;;5057145;28;20467;-69
2021/12/27 07:57:39;;;;;;;37.33;33.60;;;4.40;99.90;;;;;;5053464;28;20470;-69
2021/12/27 08:00:09;;;;;;;35.43;32.03;;;4.30;99.90;;;;;;5049900;28;20455;-69
2021/12/27 08:02:36;;;;;;;34.77;31.43;;;4.30;99.90;;;;;;5047562;28;20463;-69
2021/12/27 08:05:05;;;;;;;35.40;31.90;;;4.30;99.90;;;;;;5059390;28;20514;-70
2021/12/27 08:07:32;;;;;;;35.40;31.70;;;4.30;99.90;;;;;;5049748;28;20479;-69
2021/12/27 08:09:59;;;;;;;33.93;30.83;;;4.30;99.90;;;;;;5058214;28;20468;-69
2021/12/27 08:12:25;;;;;;;35.10;31.53;;;4.40;99.90;;;;;;5055682;28;20464;-69
2021/12/27 08:14:52;;;;;;;33.90;30.60;;;4.50;99.90;;;;;;5053119;28;20460;-69
2021/12/27 08:17:20;;;;;;;35.03;31.77;;;4.50;99.90;;;;;;5056439;28;20809;-69
2021/12/27 08:19:47;;;;;;;32.80;29.70;;;4.60;99.90;;;;;;5055437;28;20464;-70
2021/12/27 08:22:16;;;;;;;33.20;30.40;;;4.70;99.90;;;;;;5052744;28;20994;-69
2021/12/27 08:24:42;;;;;;;34.23;30.00;;;4.80;99.90;;;;;;5054797;28;20455;-70
2021/12/27 08:27:10;;;;;;;32.30;29.30;;;4.90;99.90;;;;;;5053041;28;20471;-69
2021/12/27 08:29:36;;;;;;;35.37;31.67;;;4.90;99.90;;;;;;5055986;28;20455;-69
2021/12/27 08:32:05;;;;;;;34.23;30.90;;;4.90;99.90;;;;;;5053494;28;20838;-70
2021/12/27 08:34:32;;;;;;;35.20;31.40;;;5.10;99.90;;;;;;5054051;28;20467;-69
2021/12/27 08:36:59;;;;;;;36.20;32.33;;;5.10;99.90;;;;;;5055707;28;20465;-69
2021/12/27 08:39:28;;;;;;;35.10;31.80;;;5.10;99.90;;;;;;5046933;28;20460;-70
2021/12/27 08:41:55;;;;;;;35.33;32.07;;;5.20;99.90;;;;;;5055704;28;20463;-70
2021/12/27 08:44:22;;;;;;;33.47;30.47;;;5.20;99.90;;;;;;5053598;28;20469;-70
2021/12/27 08:46:49;;;;;;;34.23;31.03;;;5.30;99.90;;;;;;5059367;28;20462;-70
2021/12/27 08:49:16;;;;;;;40.00;33.50;;;5.40;99.90;;;;;;5047438;28;20483;-69
2021/12/27 08:51:43;;;;;;;36.03;32.23;;;5.40;99.90;;;;;;5052863;28;20474;-69
2021/12/27 08:54:10;;;;;;;33.73;30.60;;;5.40;99.90;;;;;;5053072;28;20464;-69
2021/12/27 08:56:40;;;;;;;35.23;31.83;;;5.50;99.90;;;;;;5046954;28;20485;-70
2021/12/27 08:59:08;;;;;;;34.23;31.13;;;5.60;99.90;;;;;;5061181;28;20826;-70
2021/12/27 09:01:35;;;;;;;33.40;30.50;;;5.60;99.90;;;;;;5059235;28;20576;-70
2021/12/27 09:04:04;;;;;;;33.13;29.90;;;5.60;99.90;;;;;;5050004;28;20482;-70
2021/12/27 09:06:33;;;;;;;32.67;29.47;;;5.70;99.90;;;;;;5051511;28;20550;-70
2021/12/27 09:09:00;;;;;;;34.83;31.53;;;5.60;99.90;;;;;;5053625;28;20527;-70
2021/12/27 09:11:27;;;;;;;33.40;30.00;;;5.70;99.90;;;;;;5056854;28;20470;-70
2021/12/27 09:13:55;;;;;;;34.93;31.33;;;5.80;99.90;;;;;;5049785;28;20457;-70
2021/12/27 09:16:22;;;;;;;31.70;28.97;;;6.00;99.90;;;;;;5061118;28;20480;-69
2021/12/27 09:18:50;;;;;;;33.80;30.83;;;5.90;99.90;;;;;;5049872;28;20969;-70
2021/12/27 09:21:16;;;;;;;33.70;30.40;;;6.00;99.90;;;;;;5050424;28;20468;-70
2021/12/27 09:23:43;;;;;;;34.47;31.00;;;6.10;99.90;;;;;;5050820;28;21012;-70
2021/12/27 09:26:10;;;;;;;33.60;30.50;;;6.10;99.90;;;;;;5060592;28;20459;-70
2021/12/27 09:28:37;;;;;;;32.37;29.47;;;6.30;99.90;;;;;;5052763;28;20498;-69
2021/12/27 09:31:05;;;;;;;31.73;28.93;;;6.30;99.90;;;;;;5056601;28;20466;-70
2021/12/27 09:33:32;;;;;;;33.30;29.80;;;6.40;99.90;;;;;;5059329;28;20465;-70
2021/12/27 09:35:59;;;;;;;31.90;28.63;;;6.50;99.90;;;;;;5058938;28;20466;-70
2021/12/27 09:38:26;;;;;;;32.33;29.23;;;6.40;99.90;;;;;;5053497;28;20466;-70
2021/12/27 09:40:54;;;;;;;32.67;27.77;;;6.50;99.90;;;;;;5059154;28;20464;-70
2021/12/27 09:43:21;;;;;;;31.87;28.53;;;6.50;99.90;;;;;;5057538;28;20505;-70
2021/12/27 09:45:48;;;;;;;30.50;27.60;;;6.60;99.90;;;;;;5051033;28;20604;-70
2021/12/27 09:48:16;;;;;;;30.37;27.20;;;6.50;99.90;;;;;;5054390;28;20490;-70
2021/12/27 09:50:45;;;;;;;36.07;29.30;;;6.50;99.90;;;;;;5054272;28;20483;-70
2021/12/27 09:53:12;;;;;;;29.57;26.53;;;6.50;99.90;;;;;;5061430;28;20474;-70
2021/12/27 09:55:39;;;;;;;28.73;25.93;;;6.50;99.90;;;;;;5057298;28;20484;-70
2021/12/27 09:58:06;;;;;;;29.33;26.50;;;6.60;99.90;;;;;;5055263;28;20458;-70
2021/12/27 10:00:34;;;;;;;32.27;28.43;;;6.60;99.90;;;;;;5058880;28;20516;-69
2021/12/27 10:03:01;;;;;;;30.53;27.43;;;6.70;99.90;;;;;;5055732;28;20460;-69
2021/12/27 10:05:32;;;;;;;30.37;27.37;;;6.70;99.90;;;;;;5056203;28;20477;-69
2021/12/27 10:08:00;;;;;;;29.57;26.60;;;6.70;99.90;;;;;;5053261;28;20491;-69
2021/12/27 10:10:27;;;;;;;29.17;26.27;;;6.80;99.90;;;;;;5055961;28;20469;-70
2021/12/27 10:12:54;;;;;;;27.57;24.73;;;6.90;99.90;;;;;;5055416;28;20459;-70
2021/12/27 10:15:23;;;;;;;28.87;26.03;;;6.90;99.90;;;;;;5059095;28;20657;-69
2021/12/27 10:17:50;;;;;;;29.30;25.90;;;7.00;99.90;;;;;;5057014;28;20468;-70
2021/12/27 10:20:20;;;;;;;39.50;31.70;;;7.10;99.90;;;;;;5057916;28;20618;-69
2021/12/27 10:22:50;;;;;;;29.43;26.33;;;7.00;99.90;;;;;;5054489;28;20490;-70
2021/12/27 10:25:19;;;;;;;28.90;26.13;;;7.20;99.90;;;;;;5057685;28;20463;-70
2021/12/27 10:27:48;;;;;;;29.33;26.37;;;7.20;99.90;;;;;;5060414;28;20483;-69
2021/12/27 10:30:17;;;;;;;29.80;27.00;;;7.20;99.90;;;;;;5055959;28;20468;-69
2021/12/27 10:32:45;;;;;;;27.97;25.20;;;7.20;99.90;;;;;;5053503;28;21024;-69
2021/12/27 10:35:12;;;;;;;30.40;27.30;;;7.40;99.90;;;;;;5048911;28;20461;-70
2021/12/27 10:37:43;;;;;;;31.43;28.20;;;7.50;99.90;;;;;;5059612;28;20464;-69
2021/12/27 10:40:13;;;;;;;31.87;27.80;;;7.60;99.90;;;;;;5053588;28;20560;-69
2021/12/27 10:42:43;;;;;;;30.97;27.83;;;7.60;99.90;;;;;;5052361;28;20549;-69
2021/12/27 10:45:12;;;;;;;30.17;27.07;;;7.60;99.90;;;;;;5058732;28;20466;-69
2021/12/27 10:47:42;;;;;;;29.00;26.27;;;7.70;99.90;;;;;;5048462;28;20495;-69
2021/12/27 10:50:12;;;;;;;29.80;27.00;;;7.70;99.90;;;;;;5051878;28;20479;-72
2021/12/27 10:52:52;;;;;;;30.00;26.87;;;7.60;99.90;;;;;;5060010;28;20813;-71
2021/12/27 10:55:23;;;;;;;30.00;26.77;;;7.60;99.90;;;;;;5056426;28;20822;-71
2021/12/27 10:57:51;;;;;;;29.97;26.87;;;7.60;99.90;;;;;;5050900;28;20502;-72
2021/12/27 11:00:25;;;;;;;31.13;26.80;;;7.50;99.90;;;;;;5058207;28;20457;-72
2021/12/27 11:02:52;;;;;;;29.47;26.67;;;7.50;99.90;;;;;;5056040;28;20851;-69
2021/12/27 11:05:21;;;;;;;32.90;26.70;;;7.60;99.90;;;;;;5054573;28;20471;-69
2021/12/27 11:07:48;;;;;;;37.10;27.70;;;7.60;99.90;;;;;;5059667;28;20524;-72
2021/12/27 11:10:15;;;;;;;30.90;27.60;;;7.60;99.90;;;;;;5055499;28;20459;-72
2021/12/27 11:12:44;;;;;;;29.40;26.60;;;7.60;99.90;;;;;;5054615;28;20479;-72
2021/12/27 11:15:12;;;;;;;33.60;26.60;;;7.70;99.90;;;;;;5056134;28;20463;-69
2021/12/27 11:17:40;;;;;;;30.10;26.90;;;7.80;99.90;;;;;;5055023;28;20515;-70
2021/12/27 11:20:09;;;;;;;30.47;27.27;;;8.00;99.90;;;;;;5056021;28;20459;-70
2021/12/27 11:22:38;;;;;;;30.73;26.83;;;8.10;99.90;;;;;;5054095;28;20558;-73
2021/12/27 11:25:08;;;;;;;31.00;27.70;;;8.10;99.90;;;;;;5059889;28;20463;-71
2021/12/27 11:27:36;;;;;;;29.70;26.70;;;8.30;99.90;;;;;;5053115;28;20459;-69
2021/12/27 11:30:09;;;;;;;30.17;27.10;;;8.40;99.90;;;;;;5056128;28;20468;-72
2021/12/27 11:32:38;;;;;;;29.27;26.40;;;8.40;99.90;;;;;;5052650;28;20465;-69
2021/12/27 11:35:09;;;;;;;30.47;27.23;;;8.20;99.90;;;;;;5060361;28;20467;-70
2021/12/27 11:37:38;;;;;;;30.50;27.33;;;8.30;99.90;;;;;;5053085;28;20545;-70
2021/12/27 11:40:08;;;;;;;48.73;29.40;;;8.40;99.90;;;;;;5050637;28;20475;-72
2021/12/27 11:42:55;;;;;;;31.40;27.80;;;8.30;99.90;;;;;;5053769;28;20478;-70
2021/12/27 11:45:44;;;;;;;31.70;28.17;;;8.40;99.90;;;;;;5052511;28;20505;-71
2021/12/27 11:48:13;;;;;;;28.73;25.93;;;8.50;99.90;;;;;;5054340;28;20491;-69
2021/12/27 11:51:02;;;;;;;29.83;27.13;;;8.50;99.90;;;;;;5054752;28;20490;-69
2021/12/27 11:53:32;;;;;;;29.93;26.70;;;8.40;99.90;;;;;;5052681;28;21012;-70
2021/12/27 11:55:59;;;;;;;29.53;26.47;;;8.40;99.90;;;;;;5048626;28;20459;-70
2021/12/27 11:58:32;;;;;;;28.47;25.77;;;8.50;99.90;;;;;;5054019;28;20474;-73
2021/12/27 12:01:01;;;;;;;28.77;25.97;;;8.70;99.90;;;;;;5059688;28;21029;-73
2021/12/27 12:03:41;;;;;;;28.20;25.50;;;8.70;99.90;;;;;;5052525;28;20466;-70
2021/12/27 12:06:39;;;;;;;34.37;25.57;;;8.70;99.90;;;;;;5049902;28;20452;-69
2021/12/27 12:09:15;;;;;;;29.23;26.53;;;8.70;99.90;;;;;;5052395;28;20486;-70
2021/12/27 12:11:43;;;;;;;27.47;24.87;;;8.80;99.90;;;;;;5055234;28;20451;-71
2021/12/27 12:14:31;;;;;;;25.10;22.80;;;8.80;99.90;;;;;;5056012;28;20824;-70
2021/12/27 12:17:01;;;;;;;27.17;24.50;;;8.70;99.90;;;;;;5053712;28;20458;-70
2021/12/27 12:19:42;;;;;;;26.60;23.70;;;8.80;99.90;;;;;;5057089;28;20479;-73
2021/12/27 12:22:34;;;;;;;27.20;24.50;;;8.70;99.90;;;;;;5046328;28;21077;-72
2021/12/27 12:25:23;;;;;;;26.27;23.73;;;8.80;99.90;;;;;;5053913;28;20539;-68
2021/12/27 12:27:55;;;;;;;27.07;24.23;;;8.80;99.90;;;;;;5048143;28;20788;-72
2021/12/27 12:30:25;;;;;;;25.33;22.90;;;8.90;99.90;;;;;;5057850;28;20472;-71
2021/12/27 12:33:01;;;;;;;25.90;23.50;;;9.00;99.90;;;;;;5055139;28;20451;-70
2021/12/27 12:35:33;;;;;;;26.27;24.03;;;9.00;99.90;;;;;;5054582;28;20497;-70
2021/12/27 12:38:13;;;;;;;25.10;22.70;;;8.90;99.90;;;;;;5050632;28;20472;-70
2021/12/27 12:40:41;;;;;;;24.33;22.03;;;9.00;99.90;;;;;;5054504;28;20471;-73
2021/12/27 12:43:08;;;;;;;26.27;23.97;;;9.00;99.90;;;;;;5057649;28;21144;-72